Aérodrome :
LOGIN :

S'inscrire | Disclaimer

   EN    FR    IT 

 










Légende :    VFR   VFR Marginal   IFR   IFR Intensif   IFR Très Intensif
Visi : 
Plafond : 
>= 8 km
>= 3000ft
5 à 8 km
1000 à 3000 ft
1500m à 5 km
500 à 1000 ft
800 à 1500m
200 à 500 ft
< 800m
< 200 ft
Symboles :   Orages  Brouillard  Fortes neiges  Fortes précipitations  Vent > 20 kt
SIGMETs :   Divers  Orages  Givrage  Turbulence  Onde Orograph.  Cendres Volcan.






- Altitude de l'aérodrome : 1084 ft
- Code IATA : EPL


LFSG - Épinal-Mirecourt

DERNIER METAR :
  • 210330Z AUTO 36004KT CAVOK M03/M04 Q1039

METARs EXPIRÉS :
  • 210300Z AUTO 02004KT CAVOK M04/M05 Q1039
  • 210230Z AUTO 01005KT CAVOK M03/M04 Q1039
  • 210200Z AUTO 02005KT CAVOK M02/M04 Q1040
  • 210130Z AUTO 02004KT CAVOK M02/M04 Q1040
  • 210100Z AUTO 02004KT CAVOK M02/M03 Q1040

TAF N/A



MET'MAP, la Météo Aéronautique d'un coup d'oeil ! - Copyright ORBIFLY Décembre 2007 - Disclaimer

ORBIFLY MET'MAP TEAM :

Programmation & Développement : Alexandra Zaïnal
Sur une idée originale de : Baudouin d'Aumeries
Assistance à la programmation : Marc-Olivier Méhu
Soutien technique & logistique : Manuel Goepfert

Contact : metmap@orbifly.com




SOURCES & CREDITS :

   NOAA